Time;durP1;ratioP1;P1;durP2;ratioP2;P2;SDS_P1;SDS_P2;PMS_P1;PMS_P2;Temp;Humidity;BMP_temperature;BMP_pressure;BME280_temperature;BME280_humidity;BME280_pressure;Samples;Min_cycle;Max_cycle;Signal;HPM_P1;HPM_P2
2020/12/22 00:01:47;;;;;;;;;44.25;34.75;;;;;11.34;55.20;99054.31;4729536;28;103773;-74
2020/12/22 00:04:13;;;;;;;;;44.00;35.75;;;;;11.34;55.60;99046.19;4736362;28;103882;-74
2020/12/22 00:06:40;;;;;;;;;44.50;35.75;;;;;11.31;55.57;99038.44;4723136;28;102805;-74
2020/12/22 00:09:06;;;;;;;;;42.50;34.50;;;;;11.32;54.89;99059.06;4728056;28;104277;-74
2020/12/22 00:11:33;;;;;;;;;43.50;34.50;;;;;11.32;55.23;99055.53;4726999;28;102966;-74
2020/12/22 00:14:00;;;;;;;;;38.50;34.25;;;;;11.31;55.37;99046.56;4726280;28;104170;-74
2020/12/22 00:16:36;;;;;;;;;42.00;35.00;;;;;11.32;55.39;99042.00;4719066;28;103416;-74
2020/12/22 00:19:04;;;;;;;;;42.50;33.25;;;;;11.30;55.28;99036.75;4722153;28;103469;-75
2020/12/22 00:21:32;;;;;;;;;32.50;30.00;;;;;11.30;55.27;99038.66;4743838;28;103733;-74
2020/12/22 00:23:59;;;;;;;;;36.25;33.25;;;;;11.29;55.11;99039.69;4725288;28;109108;-74
2020/12/22 00:26:25;;;;;;;;;36.25;33.00;;;;;11.24;55.40;99037.56;4727693;28;103105;-74
2020/12/22 00:28:52;;;;;;;;;39.75;35.25;;;;;11.25;55.03;99036.53;4724715;28;104241;-74
2020/12/22 00:31:19;;;;;;;;;46.50;36.00;;;;;11.24;55.52;99040.25;4730363;28;103540;-74
2020/12/22 00:33:46;;;;;;;;;42.25;35.50;;;;;11.25;55.05;99046.53;4729851;28;104527;-74
2020/12/22 00:36:13;;;;;;;;;41.50;33.00;;;;;11.25;55.24;99039.25;4727400;28;105657;-74
2020/12/22 00:38:40;;;;;;;;;48.00;34.50;;;;;11.25;55.23;99039.25;4725753;28;102931;-74
2020/12/22 00:41:11;;;;;;;;;42.00;33.50;;;;;11.25;55.86;99041.94;4726874;28;102933;-74
2020/12/22 00:43:40;;;;;;;;;37.00;33.00;;;;;11.22;55.16;99031.50;4728202;28;105012;-74
2020/12/22 00:46:06;;;;;;;;;36.75;33.25;;;;;11.21;54.94;99016.31;4728458;28;104033;-78
2020/12/22 00:48:33;;;;;;;;;34.00;32.00;;;;;11.22;55.27;99017.94;4727616;28;102856;-78
2020/12/22 00:51:00;;;;;;;;;37.50;33.25;;;;;11.22;55.24;99017.94;4738474;28;102832;-78
2020/12/22 00:53:27;;;;;;;;;35.75;32.00;;;;;11.20;55.29;99020.03;4722011;28;104152;-78
2020/12/22 00:55:53;;;;;;;;;35.75;31.00;;;;;11.18;55.16;99012.09;4727674;28;103135;-78
2020/12/22 00:58:20;;;;;;;;;34.25;31.25;;;;;11.18;55.29;99000.44;4726533;29;102938;-78
2020/12/22 01:00:47;;;;;;;;;34.50;30.50;;;;;11.17;55.18;99006.88;4728470;28;102994;-78
2020/12/22 01:03:13;;;;;;;;;35.50;29.50;;;;;11.18;55.29;98995.03;4714146;28;104509;-78
2020/12/22 01:05:40;;;;;;;;;39.75;31.50;;;;;11.17;55.04;99009.56;4692826;28;102898;-78
2020/12/22 01:08:07;;;;;;;;;26.75;24.25;;;;;11.15;55.26;99012.50;4713309;28;102971;-78
2020/12/22 01:10:34;;;;;;;;;36.00;33.00;;;;;11.15;55.47;99017.91;4722140;28;103361;-78
2020/12/22 01:13:01;;;;;;;;;34.25;30.75;;;;;11.15;55.24;99017.06;4726962;28;108658;-78
2020/12/22 01:15:29;;;;;;;;;32.25;26.25;;;;;11.15;55.13;99017.06;4722210;28;102929;-73
2020/12/22 01:17:56;;;;;;;;;37.50;32.00;;;;;11.13;55.05;99011.00;4722208;28;102902;-73
2020/12/22 01:20:24;;;;;;;;;35.00;29.75;;;;;11.13;55.21;99008.28;4723734;28;102995;-73
2020/12/22 01:22:54;;;;;;;;;34.50;31.50;;;;;11.13;55.16;98986.66;4728297;29;104081;-74
2020/12/22 01:25:21;;;;;;;;;37.00;30.75;;;;;11.11;55.06;98977.91;4730795;28;104119;-74
2020/12/22 01:27:54;;;;;;;;;33.75;32.00;;;;;11.10;55.15;98982.47;4725753;28;103375;-74
2020/12/22 01:30:22;;;;;;;;;35.75;30.00;;;;;11.09;55.13;98980.78;4727777;28;102974;-73
2020/12/22 01:32:50;;;;;;;;;31.00;25.25;;;;;11.10;55.18;98981.63;4725406;28;104066;-74
2020/12/22 01:35:17;;;;;;;;;32.00;28.25;;;;;11.10;55.13;98976.22;4726880;28;103023;-73
2020/12/22 01:37:44;;;;;;;;;30.25;29.00;;;;;11.10;55.07;98976.22;4713903;29;103207;-73
2020/12/22 01:40:11;;;;;;;;;35.50;31.50;;;;;11.09;55.19;98979.94;4729694;28;102774;-73
2020/12/22 01:42:42;;;;;;;;;37.00;30.25;;;;;11.09;55.12;98969.13;4723963;28;103657;-74
2020/12/22 01:45:10;;;;;;;;;37.75;32.75;;;;;11.07;55.01;98958.53;4723763;28;103175;-78
2020/12/22 01:47:44;;;;;;;;;35.00;29.75;;;;;11.07;55.11;98966.63;4738565;28;102952;-78
2020/12/22 01:50:14;;;;;;;;;34.25;29.25;;;;;11.06;55.09;98973.06;4726635;28;102975;-78
2020/12/22 01:52:41;;;;;;;;;32.75;30.00;;;;;11.07;55.12;98966.63;4723729;28;104168;-78
2020/12/22 01:55:07;;;;;;;;;30.75;27.75;;;;;11.05;55.49;98967.84;4725274;28;103089;-78
2020/12/22 01:57:34;;;;;;;;;32.75;30.25;;;;;11.06;54.99;98961.41;4732375;28;102945;-78
2020/12/22 02:00:01;;;;;;;;;28.25;27.50;;;;;11.05;55.07;98957.03;4723490;29;103130;-79
2020/12/22 02:02:27;;;;;;;;;33.50;29.00;;;;;11.03;55.39;98953.69;4725793;29;104418;-78
2020/12/22 02:04:54;;;;;;;;;37.50;28.50;;;;;11.03;55.19;98938.25;4720521;29;102949;-78
2020/12/22 02:07:21;;;;;;;;;33.50;27.50;;;;;11.02;55.21;98936.63;4716786;29;104048;-79
2020/12/22 02:09:49;;;;;;;;;33.75;30.25;;;;;11.02;55.05;98942.03;4711453;29;102986;-78
2020/12/22 02:12:17;;;;;;;;;30.25;29.00;;;;;11.02;54.97;98938.47;4741943;28;104071;-78
2020/12/22 02:14:44;;;;;;;;;35.50;28.50;;;;;11.01;55.11;98934.09;4724192;28;104011;-73
2020/12/22 02:17:11;;;;;;;;;37.75;31.25;;;;;11.01;54.89;98923.28;4720815;29;108452;-73
2020/12/22 02:19:38;;;;;;;;;32.00;30.00;;;;;11.00;55.14;98933.25;4725667;29;103042;-74
2020/12/22 02:22:05;;;;;;;;;29.25;25.50;;;;;11.01;55.20;98929.53;4727736;28;103940;-73
2020/12/22 02:24:33;;;;;;;;;39.25;28.00;;;;;10.99;55.36;98930.72;4726689;28;102975;-74
2020/12/22 02:27:03;;;;;;;;;29.00;25.25;;;;;11.00;55.43;98933.25;4720341;29;102982;-73
2020/12/22 02:29:32;;;;;;;;;31.50;28.50;;;;;10.98;55.07;98923.69;4728792;28;103233;-73
2020/12/22 02:31:59;;;;;;;;;31.75;26.25;;;;;10.99;55.23;98928.03;4722933;28;104515;-73
2020/12/22 02:34:26;;;;;;;;;33.25;26.25;;;;;10.98;55.26;98923.69;4726312;28;102990;-73
2020/12/22 02:36:53;;;;;;;;;33.00;29.25;;;;;10.95;55.02;98911.34;4719743;28;103000;-74
2020/12/22 02:39:21;;;;;;;;;30.00;28.00;;;;;10.96;55.20;98910.34;4735207;28;103030;-73
2020/12/22 02:41:50;;;;;;;;;31.00;27.25;;;;;10.98;54.93;98904.72;4730247;28;104228;-74
2020/12/22 02:44:19;;;;;;;;;33.50;27.00;;;;;10.96;54.98;98904.09;4728526;29;103879;-74
2020/12/22 02:46:48;;;;;;;;;28.25;24.25;;;;;10.94;55.05;98896.16;4727628;28;102735;-73
2020/12/22 02:49:17;;;;;;;;;30.25;27.25;;;;;10.95;54.99;98902.41;4725678;28;102912;-73
2020/12/22 02:51:45;;;;;;;;;28.25;27.25;;;;;10.95;55.15;98907.81;4720835;28;104000;-74
2020/12/22 02:54:11;;;;;;;;;32.25;26.50;;;;;10.94;55.17;98908.88;4733553;28;102950;-74
2020/12/22 02:56:39;;;;;;;;;28.50;25.50;;;;;10.95;55.44;98902.41;4735291;28;102861;-74
2020/12/22 02:59:07;;;;;;;;;31.00;26.75;;;;;10.94;55.16;98901.56;4723247;28;103020;-73
2020/12/22 03:01:38;;;;;;;;;26.25;25.25;;;;;10.94;55.07;98900.75;4749091;28;104359;-74
2020/12/22 03:04:05;;;;;;;;;27.00;22.00;;;;;10.93;55.34;98894.50;4729293;28;102902;-73
2020/12/22 03:06:32;;;;;;;;;26.50;26.25;;;;;10.91;55.23;98884.88;4725802;29;104476;-73
2020/12/22 03:08:58;;;;;;;;;35.25;27.50;;;;;10.91;55.15;98885.72;4728216;28;103020;-74
2020/12/22 03:11:25;;;;;;;;;24.25;20.00;;;;;10.89;54.67;98870.75;4729010;28;104462;-74
2020/12/22 03:13:52;;;;;;;;;30.25;27.75;;;;;10.93;55.10;98872.03;4724963;28;103083;-73
2020/12/22 03:16:18;;;;;;;;;26.50;23.25;;;;;10.91;54.96;98868.66;4733697;28;103215;-74
2020/12/22 03:18:45;;;;;;;;;33.25;24.50;;;;;10.91;54.85;98858.69;4729641;29;102932;-73
2020/12/22 03:21:13;;;;;;;;;32.75;26.00;;;;;10.90;55.26;98856.16;4728554;28;106086;-73
2020/12/22 03:23:39;;;;;;;;;26.75;24.75;;;;;10.89;54.92;98854.50;4734917;28;103018;-73
2020/12/22 03:26:06;;;;;;;;;29.25;25.75;;;;;10.90;55.12;98858.88;4729940;28;102852;-74
2020/12/22 03:28:32;;;;;;;;;27.50;20.00;;;;;10.89;55.21;98849.09;4726291;28;104075;-74
2020/12/22 03:30:59;;;;;;;;;34.75;25.50;;;;;10.89;54.83;98859.91;4722972;28;103904;-74
2020/12/22 03:33:26;;;;;;;;;30.25;26.25;;;;;10.90;55.01;98861.56;4731202;28;102858;-73
2020/12/22 03:35:52;;;;;;;;;25.00;21.50;;;;;10.88;54.96;98848.25;4729874;28;102915;-73
2020/12/22 03:38:19;;;;;;;;;28.50;24.25;;;;;10.87;54.86;98857.41;4729715;28;102953;-74
2020/12/22 03:40:45;;;;;;;;;28.00;22.00;;;;;10.87;54.84;98856.56;4725899;28;103573;-73
2020/12/22 03:43:12;;;;;;;;;31.25;23.75;;;;;10.87;55.00;98849.28;4726864;28;104231;-74
2020/12/22 03:45:39;;;;;;;;;26.75;24.75;;;;;10.86;55.06;98854.88;4728274;28;103651;-74
2020/12/22 03:48:06;;;;;;;;;32.00;24.75;;;;;10.87;54.92;98845.75;4737504;29;103852;-73
2020/12/22 03:50:33;;;;;;;;;30.25;24.00;;;;;10.88;54.92;98839.31;4742384;28;109135;-73
2020/12/22 03:53:00;;;;;;;;;25.25;23.75;;;;;10.87;54.80;98815.97;4709758;29;104006;-73
2020/12/22 03:55:27;;;;;;;;;30.25;24.00;;;;;10.86;54.90;98812.44;4729774;28;103105;-73
2020/12/22 03:57:54;;;;;;;;;30.25;23.00;;;;;10.86;54.98;98806.19;4731776;28;102867;-74
2020/12/22 04:00:21;;;;;;;;;32.00;26.25;;;;;10.85;54.73;98794.53;4722139;28;103653;-74
2020/12/22 04:02:48;;;;;;;;;20.25;18.00;;;;;10.83;54.54;98791.22;4726381;28;102962;-73
2020/12/22 04:05:15;;;;;;;;;24.00;21.00;;;;;10.83;55.07;98796.63;4721912;28;104054;-74
2020/12/22 04:07:42;;;;;;;;;20.00;20.00;;;;;10.85;54.97;98808.06;4730077;28;103377;-74
2020/12/22 04:10:09;;;;;;;;;28.50;21.50;;;;;10.87;54.72;98799.75;4737865;28;104384;-74
2020/12/22 04:12:36;;;;;;;;;32.75;31.25;;;;;10.90;54.76;98802.06;4740903;29;103003;-73
2020/12/22 04:15:04;;;;;;;;;19.25;16.50;;;;;10.98;54.84;98785.69;4731066;28;104610;-73
2020/12/22 04:17:30;;;;;;;;;21.50;19.00;;;;;11.01;54.25;98794.25;4731859;28;102968;-73
2020/12/22 04:19:57;;;;;;;;;20.25;19.00;;;;;11.07;54.39;98803.44;4742795;28;104007;-73
2020/12/22 04:22:24;;;;;;;;;22.50;16.25;;;;;11.13;54.28;98810.72;4736814;28;103338;-73
2020/12/22 04:24:50;;;;;;;;;21.50;20.75;;;;;11.18;54.00;98803.69;4731684;28;102907;-74
2020/12/22 04:27:17;;;;;;;;;22.50;20.00;;;;;11.21;54.36;98805.19;4747156;28;103307;-74
2020/12/22 04:29:44;;;;;;;;;20.25;18.25;;;;;11.24;53.95;98801.22;4730135;28;104447;-74
2020/12/22 04:32:10;;;;;;;;;20.75;16.25;;;;;11.27;54.14;98796.25;4719739;28;102966;-74
2020/12/22 04:34:37;;;;;;;;;18.75;16.25;;;;;11.31;53.88;98796.66;4725302;28;102829;-73
2020/12/22 04:37:03;;;;;;;;;20.50;17.75;;;;;11.31;53.92;98786.69;4726544;28;102938;-74
2020/12/22 04:39:30;;;;;;;;;21.00;16.50;;;;;11.35;53.99;98784.41;4717415;28;104062;-74
2020/12/22 04:41:57;;;;;;;;;21.50;19.25;;;;;11.37;53.99;98771.50;4719790;28;103078;-73
2020/12/22 04:44:23;;;;;;;;;23.25;20.25;;;;;11.39;53.58;98785.69;4731241;28;102921;-74
2020/12/22 04:46:51;;;;;;;;;22.00;17.75;;;;;11.40;53.80;98771.94;4729030;28;103075;-74
2020/12/22 04:49:22;;;;;;;;;24.25;21.50;;;;;11.41;53.92;98772.78;4735894;28;104551;-73
2020/12/22 04:51:49;;;;;;;;;24.00;20.25;;;;;11.41;53.55;98765.50;4716450;28;105308;-73
2020/12/22 04:54:31;;;;;;;;;24.25;22.00;;;;;11.42;53.64;98775.28;4726514;28;102945;-73
2020/12/22 04:56:58;;;;;;;;;18.25;17.75;;;;;11.42;53.90;98761.75;4729428;28;106186;-73
2020/12/22 04:59:25;;;;;;;;;22.50;20.25;;;;;11.44;53.93;98767.78;4719300;28;103919;-73
2020/12/22 05:01:51;;;;;;;;;17.00;14.50;;;;;11.44;53.39;98765.06;4733399;29;102930;-73
2020/12/22 05:04:18;;;;;;;;;25.00;21.50;;;;;11.43;53.61;98763.44;4724421;28;102928;-73
2020/12/22 05:06:45;;;;;;;;;24.00;21.50;;;;;11.44;53.50;98767.78;4729408;28;104377;-74
2020/12/22 05:09:12;;;;;;;;;24.00;19.75;;;;;11.44;53.30;98767.78;4731861;28;103866;-74
2020/12/22 05:11:38;;;;;;;;;22.75;20.75;;;;;11.46;53.27;98764.88;4727527;29;103083;-73
2020/12/22 05:14:05;;;;;;;;;23.75;22.75;;;;;11.46;53.51;98770.31;4728910;28;102966;-73
2020/12/22 05:16:36;;;;;;;;;24.50;21.25;;;;;11.48;53.19;98769.03;4727164;28;103036;-73
2020/12/22 05:19:03;;;;;;;;;22.00;20.25;;;;;11.48;53.47;98774.47;4726033;29;104100;-73
2020/12/22 05:21:35;;;;;;;;;22.50;22.00;;;;;11.47;53.21;98756.56;4714854;28;103061;-73
2020/12/22 05:24:03;;;;;;;;;25.00;22.00;;;;;11.47;53.11;98763.84;4730895;28;102832;-73
2020/12/22 05:26:33;;;;;;;;;26.00;22.75;;;;;11.46;53.47;98765.72;4730579;29;103212;-73
2020/12/22 05:29:14;;;;;;;;;24.25;19.25;;;;;11.44;53.49;98766.94;4721737;28;104037;-76
2020/12/22 05:31:48;;;;;;;;;33.75;24.75;;;;;11.38;54.11;98757.78;4726643;28;102918;-74
2020/12/22 05:34:16;;;;;;;;;29.75;22.50;;;;;11.40;54.13;98758.41;4731781;28;102838;-74
2020/12/22 05:36:43;;;;;;;;;20.50;18.00;;;;;11.40;54.19;98754.84;4730358;28;103364;-74
2020/12/22 05:39:11;;;;;;;;;23.75;20.25;;;;;11.41;54.10;98743.00;4725288;28;104493;-74
2020/12/22 05:41:38;;;;;;;;;25.75;21.00;;;;;11.39;53.97;98740.47;4732157;28;103729;-74
2020/12/22 05:44:05;;;;;;;;;21.75;20.75;;;;;11.36;53.69;98740.91;4707919;29;104989;-74
2020/12/22 05:46:36;;;;;;;;;23.50;19.50;;;;;11.36;53.80;98737.34;4704314;28;103329;-74
2020/12/22 05:49:07;;;;;;;;;21.75;21.25;;;;;11.36;53.42;98732.78;4725524;28;104045;-74
2020/12/22 05:51:37;;;;;;;;;24.00;20.75;;;;;11.38;53.27;98735.28;4723854;28;102915;-74
2020/12/22 05:54:08;;;;;;;;;22.00;21.00;;;;;11.38;53.82;98722.59;4721871;28;103796;-74
2020/12/22 05:56:35;;;;;;;;;23.25;22.00;;;;;11.35;53.77;98717.56;4729932;28;102989;-74
2020/12/22 05:59:02;;;;;;;;;23.50;21.00;;;;;11.33;53.83;98705.28;4722203;28;104334;-74
2020/12/22 06:01:33;;;;;;;;;23.50;20.00;;;;;11.32;53.70;98701.72;4723993;28;104511;-74
2020/12/22 06:04:01;;;;;;;;;21.00;18.50;;;;;11.32;53.73;98699.03;4725891;28;103479;-74
2020/12/22 06:06:29;;;;;;;;;24.25;21.00;;;;;11.29;53.71;98702.16;4730330;28;102730;-74
2020/12/22 06:08:56;;;;;;;;;24.75;21.50;;;;;11.26;53.75;98689.00;4726985;29;107441;-74
2020/12/22 06:11:23;;;;;;;;;24.50;20.50;;;;;11.23;53.49;98689.41;4729551;28;102906;-74
2020/12/22 06:13:52;;;;;;;;;23.25;21.25;;;;;11.26;53.88;98694.41;4731468;28;102910;-74
2020/12/22 06:16:20;;;;;;;;;24.75;22.00;;;;;11.25;53.82;98691.94;4735641;28;102985;-74
2020/12/22 06:18:48;;;;;;;;;23.25;18.00;;;;;11.22;53.87;98682.31;4733495;28;103992;-74
2020/12/22 06:21:18;;;;;;;;;24.00;22.00;;;;;11.23;53.90;98675.03;4746431;28;102982;-74
2020/12/22 06:23:46;;;;;;;;;24.25;20.00;;;;;11.21;53.89;98677.97;4731004;28;102815;-74
2020/12/22 06:26:13;;;;;;;;;24.00;23.25;;;;;11.20;54.01;98676.31;4733163;29;102966;-74
2020/12/22 06:28:40;;;;;;;;;24.25;20.25;;;;;11.18;53.91;98676.50;4730537;28;104418;-74
2020/12/22 06:31:31;;;;;;;;;22.50;20.00;;;;;11.17;54.02;98676.69;4722316;29;102932;-74
2020/12/22 06:33:58;;;;;;;;;24.00;21.50;;;;;11.16;53.81;98672.34;4687827;28;103834;-74
2020/12/22 06:36:25;;;;;;;;;27.75;22.00;;;;;11.16;54.07;98661.50;4726537;28;103086;-74
2020/12/22 06:38:55;;;;;;;;;21.50;20.75;;;;;11.13;54.14;98656.47;4732364;28;104077;-74
2020/12/22 06:41:28;;;;;;;;;26.75;21.25;;;;;11.14;54.16;98655.44;4736426;28;102724;-74
2020/12/22 06:43:55;;;;;;;;;24.25;21.25;;;;;11.14;54.37;98659.00;4734911;28;102737;-74
2020/12/22 06:46:34;;;;;;;;;21.75;20.50;;;;;11.14;54.21;98658.16;4738773;28;102911;-74
2020/12/22 06:49:01;;;;;;;;;27.00;23.00;;;;;11.11;54.22;98655.88;4732896;28;104085;-74
2020/12/22 06:51:32;;;;;;;;;24.75;19.75;;;;;11.14;54.63;98663.56;4740406;28;102864;-75
2020/12/22 06:53:59;;;;;;;;;22.50;20.00;;;;;11.13;54.32;98665.44;4739200;28;102863;-75
2020/12/22 06:56:40;;;;;;;;;20.00;18.25;;;;;11.12;54.42;98652.13;4736638;28;103006;-75
2020/12/22 06:59:10;;;;;;;;;22.00;20.50;;;;;11.11;54.04;98659.41;4732888;29;108951;-74
2020/12/22 07:01:46;;;;;;;;;23.50;21.25;;;;;11.09;54.27;98658.75;4736560;28;103479;-74
2020/12/22 07:04:20;;;;;;;;;22.00;20.75;;;;;11.08;54.48;98657.09;4728975;28;102784;-75
2020/12/22 07:06:46;;;;;;;;;19.25;16.25;;;;;11.09;54.42;98649.81;4735728;28;102957;-73
2020/12/22 07:09:18;;;;;;;;;19.75;17.75;;;;;11.13;54.81;98657.31;4738559;28;103901;-74
2020/12/22 07:11:46;;;;;;;;;22.00;19.75;;;;;11.13;55.86;98656.47;4736727;28;103276;-74
2020/12/22 07:14:20;;;;;;;;;22.00;20.00;;;;;11.14;54.73;98653.59;4737245;28;102872;-74
2020/12/22 07:17:00;;;;;;;;;21.50;17.00;;;;;11.14;54.57;98663.56;4733991;29;102908;-74
2020/12/22 07:19:30;;;;;;;;;23.75;20.75;;;;;11.11;55.06;98664.00;4735544;28;104554;-74
2020/12/22 07:21:57;;;;;;;;;24.00;21.75;;;;;11.10;54.88;98656.91;4730559;28;102809;-74
2020/12/22 07:24:28;;;;;;;;;21.75;20.00;;;;;11.09;55.02;98649.81;4730206;28;102809;-74
2020/12/22 07:26:54;;;;;;;;;21.50;20.00;;;;;11.10;54.69;98651.47;4737448;28;103005;-74
2020/12/22 07:29:21;;;;;;;;;20.50;16.75;;;;;11.08;54.75;98648.13;4734948;28;104273;-74
2020/12/22 07:31:48;;;;;;;;;21.50;20.25;;;;;11.06;54.41;98624.00;4726759;28;102736;-74
2020/12/22 07:34:17;;;;;;;;;20.00;18.50;;;;;11.07;54.32;98624.84;4748153;28;102706;-74
2020/12/22 07:36:44;;;;;;;;;24.75;20.75;;;;;11.05;54.80;98613.38;4741508;28;104418;-75
2020/12/22 07:39:23;;;;;;;;;22.25;17.00;;;;;11.05;54.72;98616.91;4735137;28;103935;-75
2020/12/22 07:41:52;;;;;;;;;23.50;20.00;;;;;11.04;54.60;98596.31;4737516;28;102833;-74
2020/12/22 07:44:20;;;;;;;;;25.75;20.25;;;;;11.02;54.58;98600.25;4739123;28;104032;-74
2020/12/22 07:46:48;;;;;;;;;25.50;20.75;;;;;11.03;54.71;98588.41;4737461;28;102773;-74
2020/12/22 07:49:15;;;;;;;;;21.25;18.50;;;;;11.03;54.62;98599.25;4731945;28;104062;-74
2020/12/22 07:51:46;;;;;;;;;22.25;20.25;;;;;11.02;54.57;98597.56;4729366;28;102912;-74
2020/12/22 07:54:13;;;;;;;;;19.75;16.00;;;;;11.00;54.81;98592.34;4732057;28;102916;-74
2020/12/22 07:56:44;;;;;;;;;17.00;16.00;;;;;11.00;54.56;98592.34;4733351;29;105915;-74
2020/12/22 07:59:15;;;;;;;;;26.75;21.50;;;;;11.00;54.53;98581.53;4726121;29;109779;-75
2020/12/22 08:01:44;;;;;;;;;22.25;19.75;;;;;11.00;54.36;98570.69;4740651;28;103026;-74
2020/12/22 08:04:21;;;;;;;;;20.50;18.50;;;;;10.99;54.48;98562.78;4730216;29;102915;-74
2020/12/22 08:07:05;;;;;;;;;21.75;17.75;;;;;10.99;54.35;98557.38;4723900;28;102993;-74
2020/12/22 08:09:33;;;;;;;;;22.50;20.75;;;;;10.98;54.84;98556.56;4727799;28;104378;-74
2020/12/22 08:12:02;;;;;;;;;21.75;19.75;;;;;10.98;54.40;98556.56;4732009;28;102707;-74
2020/12/22 08:14:32;;;;;;;;;24.25;18.50;;;;;10.96;54.25;98546.97;4735298;28;102769;-74
2020/12/22 08:17:03;;;;;;;;;24.25;21.50;;;;;10.97;54.37;98540.53;4739144;29;102806;-74
2020/12/22 08:19:30;;;;;;;;;22.75;19.75;;;;;10.95;54.45;98529.91;4734716;28;104787;-74
2020/12/22 08:21:59;;;;;;;;;22.25;20.50;;;;;10.95;54.06;98539.88;4731233;28;102726;-74
2020/12/22 08:24:27;;;;;;;;;21.50;19.75;;;;;10.95;54.47;98537.16;4726666;28;108739;-74
2020/12/22 08:26:54;;;;;;;;;25.50;20.00;;;;;10.94;54.25;98535.53;4727715;28;102968;-74
2020/12/22 08:29:21;;;;;;;;;20.50;20.00;;;;;10.95;54.91;98539.88;4737041;28;104113;-74
2020/12/22 08:31:47;;;;;;;;;7.25;5.50;;;;;10.94;54.73;98527.41;4739112;28;103115;-74
2020/12/22 08:34:16;;;;;;;;;21.25;17.00;;;;;10.94;54.55;98520.09;4738424;28;102754;-74
2020/12/22 08:36:44;;;;;;;;;20.75;20.00;;;;;10.94;54.30;98511.19;4738930;28;102903;-75
2020/12/22 08:39:24;;;;;;;;;21.25;19.25;;;;;10.95;54.42;98518.22;4732681;29;104155;-75
2020/12/22 08:41:54;;;;;;;;;20.75;17.75;;;;;10.94;54.18;98503.88;4733051;28;103069;-74
2020/12/22 08:44:22;;;;;;;;;20.50;17.25;;;;;10.94;54.45;98505.78;4735125;28;102826;-74
2020/12/22 08:46:49;;;;;;;;;23.00;21.00;;;;;10.94;54.32;98503.06;4741750;28;103399;-74
2020/12/22 08:49:17;;;;;;;;;23.25;19.50;;;;;10.94;54.24;98503.88;4737840;28;105137;-74
2020/12/22 08:51:44;;;;;;;;;19.00;16.00;;;;;10.93;54.43;98513.06;4728368;28;103095;-74
2020/12/22 08:54:11;;;;;;;;;23.50;19.75;;;;;10.93;54.30;98501.41;4735999;28;102837;-75
2020/12/22 08:56:38;;;;;;;;;23.25;20.75;;;;;10.94;54.43;98516.59;4739983;28;102770;-74
2020/12/22 08:59:08;;;;;;;;;16.25;15.50;;;;;10.94;54.38;98506.56;4732015;28;109323;-74
2020/12/22 09:01:49;;;;;;;;;19.25;15.50;;;;;10.93;54.33;98506.81;4734316;28;102765;-74
2020/12/22 09:04:16;;;;;;;;;21.25;19.75;;;;;10.93;54.15;98502.22;4618741;29;103985;-74
2020/12/22 09:06:44;;;;;;;;;20.00;16.50;;;;;10.94;54.21;98497.66;4740445;28;102923;-74
2020/12/22 09:09:25;;;;;;;;;18.25;15.75;;;;;10.91;54.13;98498.88;4735127;28;104359;-74
2020/12/22 09:12:07;;;;;;;;;23.00;17.75;;;;;10.94;54.29;98495.75;4737702;29;104015;-74
2020/12/22 09:14:47;;;;;;;;;15.75;14.50;;;;;10.94;54.10;98493.06;4735238;28;102690;-74
2020/12/22 09:17:33;;;;;;;;;20.00;16.25;;;;;10.94;54.04;98492.25;4732928;28;102867;-75
2020/12/22 09:20:00;;;;;;;;;21.50;18.50;;;;;10.93;54.22;98495.97;4743491;28;104548;-74
2020/12/22 09:22:30;;;;;;;;;24.00;17.25;;;;;10.92;54.30;98489.75;4743627;28;102875;-74
2020/12/22 09:24:58;;;;;;;;;19.00;17.50;;;;;10.92;54.10;98492.44;4728282;28;109499;-74
2020/12/22 09:27:32;;;;;;;;;19.25;16.50;;;;;10.93;54.01;98485.16;4733501;28;102889;-74
2020/12/22 09:29:59;;;;;;;;;21.25;16.00;;;;;10.93;54.32;98487.88;4732826;28;104497;-74
2020/12/22 09:32:26;;;;;;;;;16.00;15.00;;;;;10.92;54.23;98491.59;4739984;28;102849;-74
2020/12/22 09:34:52;;;;;;;;;16.75;16.25;;;;;10.93;54.30;98482.47;4737302;28;102895;-74
2020/12/22 09:37:21;;;;;;;;;17.00;15.00;;;;;10.91;54.14;98481.81;4750162;28;103051;-74
2020/12/22 09:39:49;;;;;;;;;18.75;14.25;;;;;10.90;54.28;98482.84;4733236;28;104070;-74
2020/12/22 09:42:20;;;;;;;;;15.50;14.25;;;;;10.91;54.19;98476.41;4732695;28;103202;-75
2020/12/22 09:44:46;;;;;;;;;16.50;14.25;;;;;10.91;54.12;98479.09;4726249;28;105460;-74
2020/12/22 09:47:13;;;;;;;;;17.75;14.75;;;;;10.92;54.24;98469.97;4731646;28;102847;-75
2020/12/22 09:49:40;;;;;;;;;16.25;16.25;;;;;10.92;54.11;98464.56;4736064;28;104597;-74
2020/12/22 09:52:07;;;;;;;;;16.00;14.75;;;;;10.91;54.06;98446.66;4730783;29;102821;-74
2020/12/22 09:54:34;;;;;;;;;17.50;15.25;;;;;10.92;54.23;98448.31;4736106;28;102846;-74
2020/12/22 09:57:01;;;;;;;;;18.50;15.25;;;;;10.92;54.18;98442.91;4739723;28;102896;-74
2020/12/22 09:59:28;;;;;;;;;8.25;8.25;;;;;10.92;54.06;98443.75;4736058;28;103927;-74
2020/12/22 10:01:55;;;;;;;;;19.50;16.00;;;;;10.91;53.92;98446.66;4732061;28;102840;-74
2020/12/22 10:04:22;;;;;;;;;17.75;15.75;;;;;10.91;54.17;98446.66;4724153;28;102939;-74
2020/12/22 10:06:49;;;;;;;;;14.25;13.00;;;;;10.91;54.16;98438.53;4738809;28;102863;-74
2020/12/22 10:09:16;;;;;;;;;20.25;14.75;;;;;10.90;53.97;98434.16;4738967;28;103916;-74
2020/12/22 10:11:43;;;;;;;;;18.75;15.00;;;;;10.91;53.93;98427.72;4736355;28;102727;-75
2020/12/22 10:14:09;;;;;;;;;15.75;14.75;;;;;10.91;54.27;98416.91;4740535;28;103057;-74
2020/12/22 10:16:36;;;;;;;;;15.25;14.75;;;;;10.90;53.95;98417.94;4736592;28;102982;-74
2020/12/22 10:19:03;;;;;;;;;16.00;14.00;;;;;10.89;54.31;98405.47;4739305;28;103919;-74
2020/12/22 10:21:30;;;;;;;;;16.50;13.00;;;;;10.88;54.22;98401.94;4743422;28;102907;-74
2020/12/22 10:23:59;;;;;;;;;16.75;15.00;;;;;10.91;54.10;98408.78;4741785;28;102825;-74
2020/12/22 10:26:27;;;;;;;;;16.50;14.00;;;;;10.90;54.02;98415.22;4736961;28;103154;-74
2020/12/22 10:28:54;;;;;;;;;14.25;13.25;;;;;10.88;54.17;98411.91;4739132;28;104489;-74
2020/12/22 10:31:22;;;;;;;;;21.75;17.25;;;;;10.89;54.29;98421.69;4736966;28;102879;-74
2020/12/22 10:33:49;;;;;;;;;16.75;15.75;;;;;10.88;54.16;98414.63;4738887;28;102896;-74
2020/12/22 10:36:17;;;;;;;;;15.25;14.25;;;;;10.88;54.19;98414.63;4738484;28;103064;-79
2020/12/22 10:38:50;;;;;;;;;13.50;11.00;;;;;10.89;54.38;98402.75;4739545;28;104890;-79
2020/12/22 10:41:17;;;;;;;;;19.25;16.00;;;;;10.88;53.97;98393.81;4740481;28;102892;-79
2020/12/22 10:43:45;;;;;;;;;15.50;14.75;;;;;10.87;54.20;98381.31;4737709;28;102665;-79
2020/12/22 10:46:11;;;;;;;;;18.75;16.50;;;;;10.87;54.06;98386.72;4742838;28;102805;-79
2020/12/22 10:48:38;;;;;;;;;14.25;13.00;;;;;10.87;54.07;98389.44;4750619;28;109937;-79
2020/12/22 10:51:05;;;;;;;;;14.75;11.75;;;;;10.87;54.16;98391.31;4737336;28;104702;-79
2020/12/22 10:53:32;;;;;;;;;22.25;15.50;;;;;10.86;53.97;98382.34;4729554;28;104725;-79
2020/12/22 10:56:00;;;;;;;;;22.00;15.25;;;;;10.87;54.26;98392.13;4734623;28;102850;-79
2020/12/22 10:58:26;;;;;;;;;15.00;13.25;;;;;10.87;54.16;98388.59;4738555;28;104267;-79
2020/12/22 11:00:53;;;;;;;;;16.50;15.00;;;;;10.87;54.50;98396.72;4741450;28;103119;-79
2020/12/22 11:03:20;;;;;;;;;15.75;14.25;;;;;10.86;54.16;98412.09;4741732;28;102844;-79
2020/12/22 11:08:39;;;;;;;;;15.75;15.00;;;;;10.86;54.02;98403.16;4735307;28;104058;-74
2020/12/22 11:11:07;;;;;;;;;20.25;15.50;;;;;10.86;54.18;98397.75;4738311;29;102920;-74
2020/12/22 11:13:35;;;;;;;;;15.00;12.00;;;;;10.86;54.10;98385.06;4737721;28;102912;-74
2020/12/22 11:16:05;;;;;;;;;15.25;14.00;;;;;10.85;54.04;98369.88;4753128;28;104361;-74
2020/12/22 11:18:35;;;;;;;;;14.00;12.00;;;;;10.85;54.22;98361.75;4730353;28;104103;-74